sensor_id;sensor_type;location;lat;lon;timestamp;temperature;humidity
21627;DHT22;10975;47.872;12.972;2023-07-30T00:02:31;18.60;99.90
21627;DHT22;10975;47.872;12.972;2023-07-30T00:07:44;18.60;99.90
21627;DHT22;10975;47.872;12.972;2023-07-30T00:10:21;18.60;99.90
21627;DHT22;10975;47.872;12.972;2023-07-30T00:16:35;18.60;99.90
21627;DHT22;10975;47.872;12.972;2023-07-30T00:19:02;18.60;99.90
21627;DHT22;10975;47.872;12.972;2023-07-30T00:21:31;18.60;99.90
21627;DHT22;10975;47.872;12.972;2023-07-30T00:24:06;18.60;99.90
21627;DHT22;10975;47.872;12.972;2023-07-30T00:26:33;18.60;99.90
21627;DHT22;10975;47.872;12.972;2023-07-30T00:28:59;18.60;99.90
21627;DHT22;10975;47.872;12.972;2023-07-30T00:31:26;18.60;99.90
21627;DHT22;10975;47.872;12.972;2023-07-30T00:33:53;18.60;99.90
21627;DHT22;10975;47.872;12.972;2023-07-30T00:36:20;18.60;99.90
21627;DHT22;10975;47.872;12.972;2023-07-30T00:38:46;18.60;99.90
21627;DHT22;10975;47.872;12.972;2023-07-30T00:41:13;18.60;99.90
21627;DHT22;10975;47.872;12.972;2023-07-30T00:43:40;18.60;99.90
21627;DHT22;10975;47.872;12.972;2023-07-30T00:46:07;18.60;99.90
21627;DHT22;10975;47.872;12.972;2023-07-30T00:48:34;18.60;99.90
21627;DHT22;10975;47.872;12.972;2023-07-30T00:51:01;18.60;99.90
21627;DHT22;10975;47.872;12.972;2023-07-30T00:53:27;18.60;99.90
21627;DHT22;10975;47.872;12.972;2023-07-30T00:55:54;18.60;99.90
21627;DHT22;10975;47.872;12.972;2023-07-30T00:58:21;18.60;99.90
21627;DHT22;10975;47.872;12.972;2023-07-30T01:00:49;18.60;99.90
21627;DHT22;10975;47.872;12.972;2023-07-30T01:03:16;18.70;99.90
21627;DHT22;10975;47.872;12.972;2023-07-30T01:05:44;18.70;99.90
21627;DHT22;10975;47.872;12.972;2023-07-30T01:08:11;18.70;99.90
21627;DHT22;10975;47.872;12.972;2023-07-30T01:10:41;18.70;99.90
21627;DHT22;10975;47.872;12.972;2023-07-30T01:13:08;18.70;99.90
21627;DHT22;10975;47.872;12.972;2023-07-30T01:15:36;18.70;99.90
21627;DHT22;10975;47.872;12.972;2023-07-30T01:18:03;18.70;99.90
21627;DHT22;10975;47.872;12.972;2023-07-30T01:20:31;18.60;99.90
21627;DHT22;10975;47.872;12.972;2023-07-30T01:22:58;18.70;99.90
21627;DHT22;10975;47.872;12.972;2023-07-30T01:25:27;18.60;99.90
21627;DHT22;10975;47.872;12.972;2023-07-30T01:27:55;18.60;99.90
21627;DHT22;10975;47.872;12.972;2023-07-30T01:30:25;18.50;99.90
21627;DHT22;10975;47.872;12.972;2023-07-30T01:32:53;18.50;99.90
21627;DHT22;10975;47.872;12.972;2023-07-30T01:35:21;18.60;99.90
21627;DHT22;10975;47.872;12.972;2023-07-30T01:37:51;18.60;99.90
21627;DHT22;10975;47.872;12.972;2023-07-30T01:40:18;18.60;99.90
21627;DHT22;10975;47.872;12.972;2023-07-30T01:42:45;18.50;99.90
21627;DHT22;10975;47.872;12.972;2023-07-30T01:45:11;18.50;99.90
21627;DHT22;10975;47.872;12.972;2023-07-30T01:47:38;18.50;99.90
21627;DHT22;10975;47.872;12.972;2023-07-30T01:50:05;18.50;99.90
21627;DHT22;10975;47.872;12.972;2023-07-30T01:52:32;18.50;99.90
21627;DHT22;10975;47.872;12.972;2023-07-30T01:54:59;18.50;99.90
21627;DHT22;10975;47.872;12.972;2023-07-30T01:57:27;18.50;99.90
21627;DHT22;10975;47.872;12.972;2023-07-30T01:59:54;18.50;99.90
21627;DHT22;10975;47.872;12.972;2023-07-30T02:02:20;18.50;99.90
21627;DHT22;10975;47.872;12.972;2023-07-30T02:04:47;18.50;99.90
21627;DHT22;10975;47.872;12.972;2023-07-30T02:07:14;18.50;99.90
21627;DHT22;10975;47.872;12.972;2023-07-30T02:09:43;18.50;99.90
21627;DHT22;10975;47.872;12.972;2023-07-30T02:12:09;18.50;99.90
21627;DHT22;10975;47.872;12.972;2023-07-30T02:14:37;18.40;99.90
21627;DHT22;10975;47.872;12.972;2023-07-30T02:17:04;18.40;99.90
21627;DHT22;10975;47.872;12.972;2023-07-30T02:19:31;18.40;99.90
21627;DHT22;10975;47.872;12.972;2023-07-30T02:21:57;18.40;99.90
21627;DHT22;10975;47.872;12.972;2023-07-30T02:24:24;18.40;99.90
21627;DHT22;10975;47.872;12.972;2023-07-30T02:26:51;18.40;99.90
21627;DHT22;10975;47.872;12.972;2023-07-30T02:29:17;18.40;99.90
21627;DHT22;10975;47.872;12.972;2023-07-30T02:31:44;18.30;99.90
21627;DHT22;10975;47.872;12.972;2023-07-30T02:34:11;18.30;99.90
21627;DHT22;10975;47.872;12.972;2023-07-30T02:36:38;18.30;99.90
21627;DHT22;10975;47.872;12.972;2023-07-30T02:39:04;18.20;99.90
21627;DHT22;10975;47.872;12.972;2023-07-30T02:41:31;18.30;99.90
21627;DHT22;10975;47.872;12.972;2023-07-30T02:43:58;18.30;99.90
21627;DHT22;10975;47.872;12.972;2023-07-30T02:46:24;18.20;99.90
21627;DHT22;10975;47.872;12.972;2023-07-30T02:48:51;18.30;99.90
21627;DHT22;10975;47.872;12.972;2023-07-30T02:51:18;18.30;99.90
21627;DHT22;10975;47.872;12.972;2023-07-30T02:53:44;18.40;99.90
21627;DHT22;10975;47.872;12.972;2023-07-30T02:56:11;18.30;99.90
21627;DHT22;10975;47.872;12.972;2023-07-30T02:58:38;18.40;99.90
21627;DHT22;10975;47.872;12.972;2023-07-30T03:01:05;18.40;99.90
21627;DHT22;10975;47.872;12.972;2023-07-30T03:03:32;18.40;99.90
21627;DHT22;10975;47.872;12.972;2023-07-30T03:05:59;18.40;99.90
21627;DHT22;10975;47.872;12.972;2023-07-30T03:08:26;18.30;99.90
21627;DHT22;10975;47.872;12.972;2023-07-30T03:10:52;18.30;99.90
21627;DHT22;10975;47.872;12.972;2023-07-30T03:13:19;18.40;99.90
21627;DHT22;10975;47.872;12.972;2023-07-30T03:15:48;18.30;99.90
21627;DHT22;10975;47.872;12.972;2023-07-30T03:18:14;18.40;99.90
21627;DHT22;10975;47.872;12.972;2023-07-30T03:20:41;18.40;99.90
21627;DHT22;10975;47.872;12.972;2023-07-30T03:23:08;18.30;99.90
21627;DHT22;10975;47.872;12.972;2023-07-30T03:25:34;18.30;99.90
21627;DHT22;10975;47.872;12.972;2023-07-30T03:28:01;18.30;99.90
21627;DHT22;10975;47.872;12.972;2023-07-30T03:30:30;18.30;99.90
21627;DHT22;10975;47.872;12.972;2023-07-30T03:32:57;18.30;99.90
21627;DHT22;10975;47.872;12.972;2023-07-30T03:35:35;18.40;99.90
21627;DHT22;10975;47.872;12.972;2023-07-30T03:38:04;18.30;99.90
21627;DHT22;10975;47.872;12.972;2023-07-30T03:40:31;18.40;99.90
21627;DHT22;10975;47.872;12.972;2023-07-30T03:42:58;18.30;99.90
21627;DHT22;10975;47.872;12.972;2023-07-30T03:45:27;18.30;99.90
21627;DHT22;10975;47.872;12.972;2023-07-30T03:48:01;18.30;99.90
21627;DHT22;10975;47.872;12.972;2023-07-30T03:50:31;18.40;99.90
21627;DHT22;10975;47.872;12.972;2023-07-30T03:53:00;18.40;99.90
21627;DHT22;10975;47.872;12.972;2023-07-30T03:55:27;18.40;99.90
21627;DHT22;10975;47.872;12.972;2023-07-30T03:57:55;18.40;99.90
21627;DHT22;10975;47.872;12.972;2023-07-30T04:00:21;18.40;99.90
21627;DHT22;10975;47.872;12.972;2023-07-30T04:02:48;18.40;99.90
21627;DHT22;10975;47.872;12.972;2023-07-30T04:05:15;18.30;99.90
21627;DHT22;10975;47.872;12.972;2023-07-30T04:07:42;18.30;99.90
21627;DHT22;10975;47.872;12.972;2023-07-30T04:10:08;18.30;99.90
21627;DHT22;10975;47.872;12.972;2023-07-30T04:12:35;18.30;99.90
21627;DHT22;10975;47.872;12.972;2023-07-30T04:15:02;18.40;99.90
21627;DHT22;10975;47.872;12.972;2023-07-30T04:17:29;18.40;99.90
21627;DHT22;10975;47.872;12.972;2023-07-30T04:19:56;18.30;99.90
21627;DHT22;10975;47.872;12.972;2023-07-30T04:22:22;18.30;99.90
21627;DHT22;10975;47.872;12.972;2023-07-30T04:24:49;18.30;99.90
21627;DHT22;10975;47.872;12.972;2023-07-30T04:27:16;18.20;99.90
21627;DHT22;10975;47.872;12.972;2023-07-30T04:29:42;18.10;99.90
21627;DHT22;10975;47.872;12.972;2023-07-30T04:32:09;18.10;99.90
21627;DHT22;10975;47.872;12.972;2023-07-30T04:34:36;18.20;99.90
21627;DHT22;10975;47.872;12.972;2023-07-30T04:37:03;18.20;99.90
21627;DHT22;10975;47.872;12.972;2023-07-30T04:39:30;18.30;99.90
21627;DHT22;10975;47.872;12.972;2023-07-30T04:41:58;18.30;99.90
21627;DHT22;10975;47.872;12.972;2023-07-30T04:44:25;18.30;99.90
21627;DHT22;10975;47.872;12.972;2023-07-30T04:46:52;18.30;99.90
21627;DHT22;10975;47.872;12.972;2023-07-30T04:49:18;18.30;99.90
21627;DHT22;10975;47.872;12.972;2023-07-30T04:51:45;18.30;99.90
21627;DHT22;10975;47.872;12.972;2023-07-30T04:54:12;18.20;99.90
21627;DHT22;10975;47.872;12.972;2023-07-30T04:56:38;18.30;99.90
21627;DHT22;10975;47.872;12.972;2023-07-30T04:59:05;18.20;99.90
21627;DHT22;10975;47.872;12.972;2023-07-30T05:01:32;18.10;99.90
21627;DHT22;10975;47.872;12.972;2023-07-30T05:03:59;18.20;99.90
21627;DHT22;10975;47.872;12.972;2023-07-30T05:06:26;18.20;99.90
21627;DHT22;10975;47.872;12.972;2023-07-30T05:08:52;18.30;99.90
21627;DHT22;10975;47.872;12.972;2023-07-30T05:11:19;18.40;99.90
21627;DHT22;10975;47.872;12.972;2023-07-30T05:13:46;18.40;99.90
21627;DHT22;10975;47.872;12.972;2023-07-30T05:16:13;18.40;99.90
21627;DHT22;10975;47.872;12.972;2023-07-30T05:18:39;18.50;99.90
21627;DHT22;10975;47.872;12.972;2023-07-30T05:21:07;18.50;99.90
21627;DHT22;10975;47.872;12.972;2023-07-30T05:23:35;18.60;99.90
21627;DHT22;10975;47.872;12.972;2023-07-30T05:26:02;18.60;99.90
21627;DHT22;10975;47.872;12.972;2023-07-30T05:28:28;18.60;99.90
21627;DHT22;10975;47.872;12.972;2023-07-30T05:30:55;18.60;99.90
21627;DHT22;10975;47.872;12.972;2023-07-30T05:33:22;18.70;99.90
21627;DHT22;10975;47.872;12.972;2023-07-30T05:35:48;18.80;99.90
21627;DHT22;10975;47.872;12.972;2023-07-30T05:38:15;18.80;99.90
21627;DHT22;10975;47.872;12.972;2023-07-30T05:40:42;18.90;99.90
21627;DHT22;10975;47.872;12.972;2023-07-30T05:43:09;18.90;99.90
21627;DHT22;10975;47.872;12.972;2023-07-30T05:45:35;19.00;99.90
21627;DHT22;10975;47.872;12.972;2023-07-30T05:48:02;19.00;99.90
21627;DHT22;10975;47.872;12.972;2023-07-30T05:50:29;19.00;99.90
21627;DHT22;10975;47.872;12.972;2023-07-30T05:52:55;19.10;99.90
21627;DHT22;10975;47.872;12.972;2023-07-30T05:55:22;19.20;99.90
21627;DHT22;10975;47.872;12.972;2023-07-30T05:57:49;19.30;99.90
21627;DHT22;10975;47.872;12.972;2023-07-30T06:00:16;19.40;99.90
21627;DHT22;10975;47.872;12.972;2023-07-30T06:02:43;19.50;99.90
21627;DHT22;10975;47.872;12.972;2023-07-30T06:05:09;19.60;99.90
21627;DHT22;10975;47.872;12.972;2023-07-30T06:07:36;19.60;99.90
21627;DHT22;10975;47.872;12.972;2023-07-30T06:10:03;19.60;99.90
21627;DHT22;10975;47.872;12.972;2023-07-30T06:12:30;19.60;99.90
21627;DHT22;10975;47.872;12.972;2023-07-30T06:14:56;19.60;99.90
21627;DHT22;10975;47.872;12.972;2023-07-30T06:17:23;19.60;99.90
21627;DHT22;10975;47.872;12.972;2023-07-30T06:19:50;19.60;99.90
21627;DHT22;10975;47.872;12.972;2023-07-30T06:22:16;19.70;99.90
21627;DHT22;10975;47.872;12.972;2023-07-30T06:24:43;19.50;99.90
21627;DHT22;10975;47.872;12.972;2023-07-30T06:27:10;19.50;99.90
21627;DHT22;10975;47.872;12.972;2023-07-30T06:29:39;19.60;99.90
21627;DHT22;10975;47.872;12.972;2023-07-30T06:32:05;19.70;99.90
21627;DHT22;10975;47.872;12.972;2023-07-30T06:34:32;19.80;99.90
21627;DHT22;10975;47.872;12.972;2023-07-30T06:36:59;19.90;99.90
21627;DHT22;10975;47.872;12.972;2023-07-30T06:39:26;20.00;99.90
21627;DHT22;10975;47.872;12.972;2023-07-30T06:41:52;20.00;99.90
21627;DHT22;10975;47.872;12.972;2023-07-30T06:44:19;20.10;99.90
21627;DHT22;10975;47.872;12.972;2023-07-30T06:46:46;20.10;99.90
21627;DHT22;10975;47.872;12.972;2023-07-30T06:49:13;20.20;99.90
21627;DHT22;10975;47.872;12.972;2023-07-30T06:51:39;20.20;99.90
21627;DHT22;10975;47.872;12.972;2023-07-30T06:54:07;20.10;99.90
21627;DHT22;10975;47.872;12.972;2023-07-30T06:56:33;20.30;99.90
21627;DHT22;10975;47.872;12.972;2023-07-30T06:59:01;20.40;99.90
21627;DHT22;10975;47.872;12.972;2023-07-30T07:01:28;20.60;99.90
21627;DHT22;10975;47.872;12.972;2023-07-30T07:03:55;20.70;99.90
21627;DHT22;10975;47.872;12.972;2023-07-30T07:06:21;20.80;99.90
21627;DHT22;10975;47.872;12.972;2023-07-30T07:08:48;21.00;99.90
21627;DHT22;10975;47.872;12.972;2023-07-30T07:11:15;21.20;99.90
21627;DHT22;10975;47.872;12.972;2023-07-30T07:13:41;21.30;99.90
21627;DHT22;10975;47.872;12.972;2023-07-30T07:16:08;21.30;99.90
21627;DHT22;10975;47.872;12.972;2023-07-30T07:18:35;21.30;99.90
21627;DHT22;10975;47.872;12.972;2023-07-30T07:21:02;21.30;99.90
21627;DHT22;10975;47.872;12.972;2023-07-30T07:23:29;21.20;99.90
21627;DHT22;10975;47.872;12.972;2023-07-30T07:25:55;21.10;99.90
21627;DHT22;10975;47.872;12.972;2023-07-30T07:28:22;21.20;99.90
21627;DHT22;10975;47.872;12.972;2023-07-30T07:30:49;21.30;99.90
21627;DHT22;10975;47.872;12.972;2023-07-30T07:33:16;21.40;99.90
21627;DHT22;10975;47.872;12.972;2023-07-30T07:35:42;21.40;99.90
21627;DHT22;10975;47.872;12.972;2023-07-30T07:38:09;21.50;99.90
21627;DHT22;10975;47.872;12.972;2023-07-30T07:40:39;21.60;99.90
21627;DHT22;10975;47.872;12.972;2023-07-30T07:43:06;21.80;99.90
21627;DHT22;10975;47.872;12.972;2023-07-30T07:45:33;21.90;99.90
21627;DHT22;10975;47.872;12.972;2023-07-30T07:48:00;21.90;99.90
21627;DHT22;10975;47.872;12.972;2023-07-30T07:50:27;21.80;99.90
21627;DHT22;10975;47.872;12.972;2023-07-30T07:52:53;21.70;99.90
21627;DHT22;10975;47.872;12.972;2023-07-30T07:55:20;21.50;99.90
21627;DHT22;10975;47.872;12.972;2023-07-30T07:57:47;21.70;99.90
21627;DHT22;10975;47.872;12.972;2023-07-30T08:00:17;21.90;99.90
21627;DHT22;10975;47.872;12.972;2023-07-30T08:02:43;22.00;99.90
21627;DHT22;10975;47.872;12.972;2023-07-30T08:05:10;22.00;99.90
21627;DHT22;10975;47.872;12.972;2023-07-30T08:07:37;21.90;99.90
21627;DHT22;10975;47.872;12.972;2023-07-30T08:10:04;22.00;99.90
21627;DHT22;10975;47.872;12.972;2023-07-30T08:12:31;21.80;99.90
21627;DHT22;10975;47.872;12.972;2023-07-30T08:14:59;21.80;99.90
21627;DHT22;10975;47.872;12.972;2023-07-30T08:17:25;22.10;99.90
21627;DHT22;10975;47.872;12.972;2023-07-30T08:19:52;22.20;99.90
21627;DHT22;10975;47.872;12.972;2023-07-30T08:22:28;22.50;99.90
21627;DHT22;10975;47.872;12.972;2023-07-30T08:24:54;22.70;99.90
21627;DHT22;10975;47.872;12.972;2023-07-30T08:27:21;22.90;99.90
21627;DHT22;10975;47.872;12.972;2023-07-30T08:29:48;22.90;99.90
21627;DHT22;10975;47.872;12.972;2023-07-30T08:32:15;22.90;99.90
21627;DHT22;10975;47.872;12.972;2023-07-30T08:34:41;23.00;99.90
21627;DHT22;10975;47.872;12.972;2023-07-30T08:37:08;22.90;99.90
21627;DHT22;10975;47.872;12.972;2023-07-30T08:39:35;23.00;99.90
21627;DHT22;10975;47.872;12.972;2023-07-30T08:42:02;23.20;99.90
21627;DHT22;10975;47.872;12.972;2023-07-30T08:44:43;23.20;99.90
21627;DHT22;10975;47.872;12.972;2023-07-30T08:47:10;23.20;99.90
21627;DHT22;10975;47.872;12.972;2023-07-30T08:49:36;23.30;99.90
21627;DHT22;10975;47.872;12.972;2023-07-30T08:52:03;23.40;99.90
21627;DHT22;10975;47.872;12.972;2023-07-30T08:54:31;23.50;99.90
21627;DHT22;10975;47.872;12.972;2023-07-30T08:56:58;23.60;99.90
21627;DHT22;10975;47.872;12.972;2023-07-30T08:59:24;23.70;99.90
21627;DHT22;10975;47.872;12.972;2023-07-30T09:01:53;23.90;99.90
21627;DHT22;10975;47.872;12.972;2023-07-30T09:04:20;23.80;99.90
21627;DHT22;10975;47.872;12.972;2023-07-30T09:06:48;23.90;99.90
21627;DHT22;10975;47.872;12.972;2023-07-30T09:09:18;24.10;99.90
21627;DHT22;10975;47.872;12.972;2023-07-30T09:11:50;24.10;99.90
21627;DHT22;10975;47.872;12.972;2023-07-30T09:14:18;23.80;99.90
21627;DHT22;10975;47.872;12.972;2023-07-30T09:16:45;23.50;99.90
21627;DHT22;10975;47.872;12.972;2023-07-30T09:19:18;23.40;99.90
21627;DHT22;10975;47.872;12.972;2023-07-30T09:21:45;23.30;99.90
21627;DHT22;10975;47.872;12.972;2023-07-30T09:24:11;23.20;99.90
21627;DHT22;10975;47.872;12.972;2023-07-30T09:26:45;23.20;99.90
21627;DHT22;10975;47.872;12.972;2023-07-30T09:29:12;23.20;99.90
21627;DHT22;10975;47.872;12.972;2023-07-30T09:31:46;23.50;99.90
21627;DHT22;10975;47.872;12.972;2023-07-30T09:34:16;23.30;99.90
21627;DHT22;10975;47.872;12.972;2023-07-30T09:36:44;23.40;99.90
21627;DHT22;10975;47.872;12.972;2023-07-30T09:39:15;23.40;99.90
21627;DHT22;10975;47.872;12.972;2023-07-30T09:41:42;23.60;99.90
21627;DHT22;10975;47.872;12.972;2023-07-30T09:44:09;23.60;99.90
21627;DHT22;10975;47.872;12.972;2023-07-30T09:46:43;23.60;99.90
21627;DHT22;10975;47.872;12.972;2023-07-30T09:49:10;23.60;99.90
21627;DHT22;10975;47.872;12.972;2023-07-30T09:51:37;23.60;99.90
21627;DHT22;10975;47.872;12.972;2023-07-30T09:54:09;23.50;99.90
21627;DHT22;10975;47.872;12.972;2023-07-30T09:56:36;23.40;99.90
21627;DHT22;10975;47.872;12.972;2023-07-30T09:59:04;23.30;99.90
21627;DHT22;10975;47.872;12.972;2023-07-30T10:01:31;23.20;99.90
21627;DHT22;10975;47.872;12.972;2023-07-30T10:03:57;23.10;99.90
21627;DHT22;10975;47.872;12.972;2023-07-30T10:06:25;22.90;99.90
21627;DHT22;10975;47.872;12.972;2023-07-30T10:08:54;22.80;99.90
21627;DHT22;10975;47.872;12.972;2023-07-30T10:11:23;23.00;99.90
21627;DHT22;10975;47.872;12.972;2023-07-30T10:13:50;23.30;99.90
21627;DHT22;10975;47.872;12.972;2023-07-30T10:16:17;23.60;99.90
21627;DHT22;10975;47.872;12.972;2023-07-30T10:18:44;23.70;99.90
21627;DHT22;10975;47.872;12.972;2023-07-30T10:21:11;23.70;99.90
21627;DHT22;10975;47.872;12.972;2023-07-30T10:26:43;24.20;99.90
21627;DHT22;10975;47.872;12.972;2023-07-30T10:29:14;24.20;99.90
21627;DHT22;10975;47.872;12.972;2023-07-30T10:31:42;24.30;99.90
21627;DHT22;10975;47.872;12.972;2023-07-30T10:34:10;24.40;99.90
21627;DHT22;10975;47.872;12.972;2023-07-30T10:36:43;24.40;99.90
21627;DHT22;10975;47.872;12.972;2023-07-30T10:39:17;24.30;99.90
21627;DHT22;10975;47.872;12.972;2023-07-30T10:41:48;23.80;99.90
21627;DHT22;10975;47.872;12.972;2023-07-30T10:44:22;23.50;99.90
21627;DHT22;10975;47.872;12.972;2023-07-30T10:46:50;23.30;99.90
21627;DHT22;10975;47.872;12.972;2023-07-30T10:49:18;23.30;99.90
21627;DHT22;10975;47.872;12.972;2023-07-30T10:51:45;23.70;99.90
21627;DHT22;10975;47.872;12.972;2023-07-30T10:54:12;24.10;99.90
21627;DHT22;10975;47.872;12.972;2023-07-30T10:56:39;24.10;99.90
21627;DHT22;10975;47.872;12.972;2023-07-30T10:59:07;24.10;99.90
21627;DHT22;10975;47.872;12.972;2023-07-30T11:01:40;23.90;99.90
21627;DHT22;10975;47.872;12.972;2023-07-30T11:04:09;23.70;99.90
21627;DHT22;10975;47.872;12.972;2023-07-30T11:06:35;23.80;99.90
21627;DHT22;10975;47.872;12.972;2023-07-30T11:09:02;24.00;99.90
21627;DHT22;10975;47.872;12.972;2023-07-30T11:11:29;24.30;99.90
21627;DHT22;10975;47.872;12.972;2023-07-30T11:13:56;24.40;99.90
21627;DHT22;10975;47.872;12.972;2023-07-30T11:16:23;24.50;99.90
21627;DHT22;10975;47.872;12.972;2023-07-30T11:18:50;24.50;99.90
21627;DHT22;10975;47.872;12.972;2023-07-30T11:21:18;24.70;99.90
21627;DHT22;10975;47.872;12.972;2023-07-30T11:23:45;24.80;99.90
21627;DHT22;10975;47.872;12.972;2023-07-30T11:26:16;25.10;99.90
21627;DHT22;10975;47.872;12.972;2023-07-30T11:28:42;25.60;99.90
21627;DHT22;10975;47.872;12.972;2023-07-30T11:33:40;25.90;99.90
21627;DHT22;10975;47.872;12.972;2023-07-30T11:36:08;25.80;99.90
21627;DHT22;10975;47.872;12.972;2023-07-30T11:38:36;25.70;99.90
21627;DHT22;10975;47.872;12.972;2023-07-30T11:41:05;25.70;99.90
21627;DHT22;10975;47.872;12.972;2023-07-30T11:43:32;25.70;99.90
21627;DHT22;10975;47.872;12.972;2023-07-30T11:49:27;25.90;99.90
21627;DHT22;10975;47.872;12.972;2023-07-30T11:52:09;25.90;99.90
21627;DHT22;10975;47.872;12.972;2023-07-30T11:54:36;25.70;99.90
21627;DHT22;10975;47.872;12.972;2023-07-30T11:57:03;25.60;99.90
21627;DHT22;10975;47.872;12.972;2023-07-30T11:59:33;25.50;99.90
21627;DHT22;10975;47.872;12.972;2023-07-30T12:05:16;25.30;99.90
21627;DHT22;10975;47.872;12.972;2023-07-30T12:07:44;25.40;99.90
21627;DHT22;10975;47.872;12.972;2023-07-30T12:10:13;25.40;99.90
21627;DHT22;10975;47.872;12.972;2023-07-30T12:12:59;25.50;99.90
21627;DHT22;10975;47.872;12.972;2023-07-30T12:15:26;25.70;99.90
21627;DHT22;10975;47.872;12.972;2023-07-30T12:17:55;25.80;99.90
21627;DHT22;10975;47.872;12.972;2023-07-30T12:20:33;25.80;99.90
21627;DHT22;10975;47.872;12.972;2023-07-30T12:23:01;25.60;99.90
21627;DHT22;10975;47.872;12.972;2023-07-30T12:25:28;25.60;99.90
21627;DHT22;10975;47.872;12.972;2023-07-30T12:27:55;25.60;99.90
21627;DHT22;10975;47.872;12.972;2023-07-30T12:30:52;25.70;99.90
21627;DHT22;10975;47.872;12.972;2023-07-30T12:33:47;25.70;99.90
21627;DHT22;10975;47.872;12.972;2023-07-30T12:36:14;25.60;99.90
21627;DHT22;10975;47.872;12.972;2023-07-30T12:39:02;26.00;99.90
21627;DHT22;10975;47.872;12.972;2023-07-30T12:45:19;26.10;99.90
21627;DHT22;10975;47.872;12.972;2023-07-30T12:47:46;25.90;99.90
21627;DHT22;10975;47.872;12.972;2023-07-30T12:50:13;25.60;99.90
21627;DHT22;10975;47.872;12.972;2023-07-30T12:52:40;25.20;99.90
21627;DHT22;10975;47.872;12.972;2023-07-30T12:55:06;24.90;99.90
21627;DHT22;10975;47.872;12.972;2023-07-30T12:57:33;24.80;99.90
21627;DHT22;10975;47.872;12.972;2023-07-30T13:03:20;24.90;99.90
21627;DHT22;10975;47.872;12.972;2023-07-30T13:06:19;24.80;99.90
21627;DHT22;10975;47.872;12.972;2023-07-30T13:09:17;25.20;99.90
21627;DHT22;10975;47.872;12.972;2023-07-30T13:14:43;25.30;99.90
21627;DHT22;10975;47.872;12.972;2023-07-30T13:18:06;25.50;99.90
21627;DHT22;10975;47.872;12.972;2023-07-30T13:20:53;25.40;99.90
21627;DHT22;10975;47.872;12.972;2023-07-30T13:23:22;25.00;99.90
21627;DHT22;10975;47.872;12.972;2023-07-30T13:25:55;24.90;99.90
21627;DHT22;10975;47.872;12.972;2023-07-30T13:28:35;24.70;99.90
21627;DHT22;10975;47.872;12.972;2023-07-30T13:31:07;24.60;99.90
21627;DHT22;10975;47.872;12.972;2023-07-30T13:34:06;24.70;99.90
21627;DHT22;10975;47.872;12.972;2023-07-30T13:36:36;24.90;99.90
21627;DHT22;10975;47.872;12.972;2023-07-30T13:39:11;25.10;99.90
21627;DHT22;10975;47.872;12.972;2023-07-30T13:41:49;25.30;99.90
21627;DHT22;10975;47.872;12.972;2023-07-30T13:44:43;25.70;99.90
21627;DHT22;10975;47.872;12.972;2023-07-30T13:50:15;25.70;99.90
21627;DHT22;10975;47.872;12.972;2023-07-30T13:53:02;26.00;99.90
21627;DHT22;10975;47.872;12.972;2023-07-30T13:56:05;26.20;99.90
21627;DHT22;10975;47.872;12.972;2023-07-30T13:58:49;26.30;99.90
21627;DHT22;10975;47.872;12.972;2023-07-30T14:01:39;26.30;99.90
21627;DHT22;10975;47.872;12.972;2023-07-30T14:04:16;26.60;99.90
21627;DHT22;10975;47.872;12.972;2023-07-30T14:07:03;26.40;99.90
21627;DHT22;10975;47.872;12.972;2023-07-30T14:09:30;26.30;99.90
21627;DHT22;10975;47.872;12.972;2023-07-30T14:11:59;26.10;99.90
21627;DHT22;10975;47.872;12.972;2023-07-30T14:14:26;25.50;99.90
21627;DHT22;10975;47.872;12.972;2023-07-30T14:16:55;24.90;99.90
21627;DHT22;10975;47.872;12.972;2023-07-30T14:19:22;24.30;99.90
21627;DHT22;10975;47.872;12.972;2023-07-30T14:22:06;23.90;99.90
21627;DHT22;10975;47.872;12.972;2023-07-30T14:24:38;23.60;99.90
21627;DHT22;10975;47.872;12.972;2023-07-30T14:27:13;23.30;99.90
21627;DHT22;10975;47.872;12.972;2023-07-30T14:29:44;23.10;99.90
21627;DHT22;10975;47.872;12.972;2023-07-30T14:32:52;22.90;99.90
21627;DHT22;10975;47.872;12.972;2023-07-30T14:38:37;22.60;99.90
21627;DHT22;10975;47.872;12.972;2023-07-30T14:41:50;22.30;99.90
21627;DHT22;10975;47.872;12.972;2023-07-30T14:44:25;22.00;99.90
21627;DHT22;10975;47.872;12.972;2023-07-30T14:46:52;22.00;99.90
21627;DHT22;10975;47.872;12.972;2023-07-30T14:53:19;22.80;99.90
21627;DHT22;10975;47.872;12.972;2023-07-30T14:56:27;23.00;99.90
21627;DHT22;10975;47.872;12.972;2023-07-30T14:58:57;23.10;99.90
21627;DHT22;10975;47.872;12.972;2023-07-30T15:01:26;22.90;99.90
21627;DHT22;10975;47.872;12.972;2023-07-30T15:03:55;22.80;99.90
21627;DHT22;10975;47.872;12.972;2023-07-30T15:06:26;22.90;99.90
21627;DHT22;10975;47.872;12.972;2023-07-30T15:20:08;22.80;99.90
21627;DHT22;10975;47.872;12.972;2023-07-30T15:23:14;22.80;99.90
21627;DHT22;10975;47.872;12.972;2023-07-30T15:26:00;22.60;99.90
21627;DHT22;10975;47.872;12.972;2023-07-30T15:28:53;22.50;99.90
21627;DHT22;10975;47.872;12.972;2023-07-30T15:31:36;22.40;99.90
21627;DHT22;10975;47.872;12.972;2023-07-30T15:37:04;22.20;99.90
21627;DHT22;10975;47.872;12.972;2023-07-30T15:40:26;22.20;99.90
21627;DHT22;10975;47.872;12.972;2023-07-30T15:43:24;22.10;99.90
21627;DHT22;10975;47.872;12.972;2023-07-30T15:45:56;21.90;99.90
21627;DHT22;10975;47.872;12.972;2023-07-30T15:48:28;21.80;99.90
21627;DHT22;10975;47.872;12.972;2023-07-30T15:50:55;20.80;99.90
21627;DHT22;10975;47.872;12.972;2023-07-30T15:53:22;19.90;99.90
21627;DHT22;10975;47.872;12.972;2023-07-30T15:55:49;19.50;99.90
21627;DHT22;10975;47.872;12.972;2023-07-30T15:58:15;19.30;99.90
21627;DHT22;10975;47.872;12.972;2023-07-30T16:00:42;19.40;99.90
21627;DHT22;10975;47.872;12.972;2023-07-30T16:03:09;19.80;99.90
21627;DHT22;10975;47.872;12.972;2023-07-30T16:05:36;20.50;99.90
21627;DHT22;10975;47.872;12.972;2023-07-30T16:08:03;21.00;99.90
21627;DHT22;10975;47.872;12.972;2023-07-30T16:10:30;21.20;99.90
21627;DHT22;10975;47.872;12.972;2023-07-30T16:12:57;21.50;99.90
21627;DHT22;10975;47.872;12.972;2023-07-30T16:15:25;21.90;99.90
21627;DHT22;10975;47.872;12.972;2023-07-30T16:17:52;21.90;99.90
21627;DHT22;10975;47.872;12.972;2023-07-30T16:20:19;22.10;99.90
21627;DHT22;10975;47.872;12.972;2023-07-30T16:22:46;22.10;99.90
21627;DHT22;10975;47.872;12.972;2023-07-30T16:25:12;21.80;99.90